Time;durP1;ratioP1;P1;durP2;ratioP2;P2;SDS_P1;SDS_P2;PMS_P1;PMS_P2;Temp;Humidity;BMP_temperature;BMP_pressure;BME280_temperature;BME280_humidity;BME280_pressure;Samples;Min_cycle;Max_cycle;Signal;HPM_P1;HPM_P2
2023/03/15 00:01:03;;;;;;;4.60;3.20;;;;;;;;;;5058220;28;20210;-82
2023/03/15 00:03:35;;;;;;;7.70;2.93;;;;;;;;;;5054006;28;20198;-83
2023/03/15 00:06:03;;;;;;;3.13;2.90;;;;;;;;;;5084569;28;20248;-82
2023/03/15 00:08:32;;;;;;;7.90;3.00;;;;;;;;;;5073492;28;20228;-82
2023/03/15 00:10:59;;;;;;;5.93;3.57;;;;;;;;;;5073364;28;20201;-82
2023/03/15 00:13:25;;;;;;;4.93;3.63;;;;;;;;;;5084714;28;20204;-82
2023/03/15 00:15:56;;;;;;;8.57;4.03;;;;;;;;;;5089247;28;20233;-82
2023/03/15 00:18:23;;;;;;;6.13;4.10;;;;;;;;;;5085810;28;20200;-81
2023/03/15 00:20:51;;;;;;;12.80;4.77;;;;;;;;;;5088574;28;20223;-82
2023/03/15 00:23:18;;;;;;;5.90;4.27;;;;;;;;;;5073714;28;20253;-82
2023/03/15 00:25:45;;;;;;;4.00;3.50;;;;;;;;;;5086603;28;20292;-82
2023/03/15 00:28:12;;;;;;;4.63;3.53;;;;;;;;;;5073275;28;20772;-82
2023/03/15 00:30:41;;;;;;;3.97;3.40;;;;;;;;;;5079483;28;21036;-82
2023/03/15 00:33:08;;;;;;;4.23;3.73;;;;;;;;;;5079453;28;20219;-84
2023/03/15 00:35:38;;;;;;;5.73;3.60;;;;;;;;;;5053123;28;20652;-81
2023/03/15 00:38:07;;;;;;;2.83;2.63;;;;;;;;;;5067544;28;20201;-81
2023/03/15 00:40:33;;;;;;;5.67;2.87;;;;;;;;;;5073382;28;20229;-81
2023/03/15 00:43:00;;;;;;;4.57;3.33;;;;;;;;;;5072736;28;20197;-81
2023/03/15 00:45:27;;;;;;;3.93;3.23;;;;;;;;;;5073127;28;20213;-81
2023/03/15 00:47:54;;;;;;;4.57;2.73;;;;;;;;;;5088214;28;20710;-81
2023/03/15 00:50:22;;;;;;;5.90;3.43;;;;;;;;;;5093017;28;20208;-81
2023/03/15 00:52:49;;;;;;;4.40;3.13;;;;;;;;;;5076739;28;20201;-81
2023/03/15 00:55:20;;;;;;;3.90;3.00;;;;;;;;;;5072421;28;20236;-81
2023/03/15 00:57:47;;;;;;;7.60;3.83;;;;;;;;;;5076334;28;20270;-80
2023/03/15 01:00:17;;;;;;;5.63;3.37;;;;;;;;;;5082733;28;20266;-81
2023/03/15 01:02:46;;;;;;;3.77;2.97;;;;;;;;;;5090189;28;20205;-81
2023/03/15 01:05:13;;;;;;;5.30;3.57;;;;;;;;;;5081416;28;20213;-82
2023/03/15 01:07:40;;;;;;;8.47;4.00;;;;;;;;;;5072114;28;20631;-81
2023/03/15 01:10:08;;;;;;;3.73;3.10;;;;;;;;;;5084420;28;20201;-81
2023/03/15 01:12:36;;;;;;;4.93;3.40;;;;;;;;;;5074787;28;20204;-81
2023/03/15 01:15:06;;;;;;;2.93;2.73;;;;;;;;;;5083262;28;20220;-81
2023/03/15 01:17:32;;;;;;;3.10;2.80;;;;;;;;;;5092757;28;20200;-81
2023/03/15 01:19:59;;;;;;;3.77;3.17;;;;;;;;;;5092339;28;20644;-80
2023/03/15 01:22:27;;;;;;;5.27;3.83;;;;;;;;;;5086545;28;20197;-81
2023/03/15 01:24:53;;;;;;;9.73;7.03;;;;;;;;;;5072198;28;20197;-81
2023/03/15 01:27:20;;;;;;;12.80;7.57;;;;;;;;;;5077584;28;20208;-81
2023/03/15 01:29:48;;;;;;;10.67;8.07;;;;;;;;;;5092199;28;20215;-81
2023/03/15 01:32:15;;;;;;;8.57;5.83;;;;;;;;;;5078271;28;20204;-81
2023/03/15 01:34:42;;;;;;;7.93;5.23;;;;;;;;;;5078950;28;20278;-81
2023/03/15 01:37:13;;;;;;;5.97;4.53;;;;;;;;;;5058600;28;20232;-81
2023/03/15 01:39:40;;;;;;;8.37;4.60;;;;;;;;;;5071727;28;20208;-80
2023/03/15 01:42:07;;;;;;;6.17;4.50;;;;;;;;;;5071809;28;20641;-81
2023/03/15 01:44:52;;;;;;;5.20;4.47;;;;;;;;;;5086083;28;20208;-80
2023/03/15 01:47:20;;;;;;;6.97;4.10;;;;;;;;;;5091798;28;20683;-81
2023/03/15 01:49:50;;;;;;;11.97;5.67;;;;;;;;;;5088247;28;20632;-80
2023/03/15 01:52:20;;;;;;;8.50;5.33;;;;;;;;;;5083028;28;20740;-81
2023/03/15 01:54:50;;;;;;;5.87;4.37;;;;;;;;;;5073206;28;20229;-80
2023/03/15 01:57:21;;;;;;;3.97;3.57;;;;;;;;;;5084723;28;20212;-80
2023/03/15 01:59:52;;;;;;;5.30;4.27;;;;;;;;;;5091492;28;20208;-80
2023/03/15 02:02:21;;;;;;;3.73;3.43;;;;;;;;;;5077353;28;20201;-80
2023/03/15 02:04:52;;;;;;;9.33;3.60;;;;;;;;;;5071187;28;20205;-80
2023/03/15 02:07:20;;;;;;;5.63;3.73;;;;;;;;;;5071089;28;20217;-81
2023/03/15 02:09:52;;;;;;;5.63;4.10;;;;;;;;;;5071118;28;20240;-80
2023/03/15 02:12:19;;;;;;;7.20;4.20;;;;;;;;;;5086584;28;20208;-81
2023/03/15 02:14:46;;;;;;;7.17;3.57;;;;;;;;;;5091311;28;20232;-81
2023/03/15 02:17:14;;;;;;;5.67;4.20;;;;;;;;;;5089410;28;20620;-80
2023/03/15 02:19:48;;;;;;;7.63;4.23;;;;;;;;;;5080726;28;20666;-80
2023/03/15 02:22:23;;;;;;;5.23;4.43;;;;;;;;;;5087354;28;20216;-80
2023/03/15 02:24:53;;;;;;;4.67;3.70;;;;;;;;;;5071140;28;20274;-80
2023/03/15 02:27:27;;;;;;;7.43;4.13;;;;;;;;;;5084818;28;20556;-80
2023/03/15 02:29:53;;;;;;;8.60;4.07;;;;;;;;;;5084722;28;20269;-81
2023/03/15 02:32:20;;;;;;;5.27;4.00;;;;;;;;;;5077869;28;20208;-81
2023/03/15 02:34:47;;;;;;;4.60;3.60;;;;;;;;;;5077339;28;20212;-80
2023/03/15 02:37:14;;;;;;;7.73;4.50;;;;;;;;;;5078684;28;20208;-80
2023/03/15 02:39:40;;;;;;;6.90;4.53;;;;;;;;;;5089871;28;20254;-80
2023/03/15 02:42:08;;;;;;;6.10;4.40;;;;;;;;;;5070949;28;20205;-80
2023/03/15 02:44:37;;;;;;;6.63;4.57;;;;;;;;;;5071632;28;20205;-80
2023/03/15 02:47:07;;;;;;;4.03;2.93;;;;;;;;;;5091494;28;20208;-80
2023/03/15 02:49:38;;;;;;;4.23;3.50;;;;;;;;;;5088774;28;20200;-80
2023/03/15 02:52:05;;;;;;;4.53;3.13;;;;;;;;;;5080279;28;20617;-80
2023/03/15 02:54:33;;;;;;;4.43;3.17;;;;;;;;;;5077350;28;20208;-80
2023/03/15 02:56:59;;;;;;;9.07;3.47;;;;;;;;;;5081181;28;20208;-81
2023/03/15 02:59:26;;;;;;;3.90;3.50;;;;;;;;;;5073321;28;20204;-81
2023/03/15 03:01:54;;;;;;;3.37;3.03;;;;;;;;;;5077660;28;20253;-80
2023/03/15 03:04:21;;;;;;;5.33;4.07;;;;;;;;;;5075072;28;20209;-80
2023/03/15 03:06:48;;;;;;;3.93;3.47;;;;;;;;;;5081592;28;20219;-81
2023/03/15 03:09:15;;;;;;;3.20;2.97;;;;;;;;;;5071132;28;20239;-80
2023/03/15 03:11:42;;;;;;;4.00;3.17;;;;;;;;;;5074381;28;20216;-79
2023/03/15 03:14:08;;;;;;;5.67;3.87;;;;;;;;;;5070637;28;20204;-80
2023/03/15 03:16:35;;;;;;;5.50;3.73;;;;;;;;;;5070825;28;20225;-80
2023/03/15 03:19:03;;;;;;;5.90;4.10;;;;;;;;;;5087806;28;20694;-80
2023/03/15 03:21:30;;;;;;;5.30;4.20;;;;;;;;;;5074756;28;20215;-84
2023/03/15 03:23:57;;;;;;;10.07;6.27;;;;;;;;;;5092391;28;20198;-80
2023/03/15 03:26:26;;;;;;;8.80;7.77;;;;;;;;;;5094451;28;20204;-80
2023/03/15 03:28:54;;;;;;;6.67;5.90;;;;;;;;;;5080978;28;20204;-80
2023/03/15 03:31:23;;;;;;;6.40;5.10;;;;;;;;;;5082190;28;20216;-78
2023/03/15 03:33:50;;;;;;;8.47;5.97;;;;;;;;;;5087713;28;20262;-80
2023/03/15 03:36:18;;;;;;;8.97;5.17;;;;;;;;;;5074260;28;20614;-78
2023/03/15 03:38:46;;;;;;;4.70;4.30;;;;;;;;;;5087358;28;20216;-79
2023/03/15 03:41:14;;;;;;;6.50;5.47;;;;;;;;;;5073654;28;20204;-80
2023/03/15 03:43:40;;;;;;;5.60;5.10;;;;;;;;;;5086928;28;20695;-80
2023/03/15 03:46:07;;;;;;;8.43;4.90;;;;;;;;;;5087117;28;20253;-81
2023/03/15 03:48:34;;;;;;;7.70;4.63;;;;;;;;;;5077275;28;20644;-80
2023/03/15 03:51:01;;;;;;;6.87;4.63;;;;;;;;;;5094476;28;20625;-80
2023/03/15 03:53:29;;;;;;;10.50;5.30;;;;;;;;;;5094253;28;20240;-80
2023/03/15 03:55:56;;;;;;;6.80;5.30;;;;;;;;;;5093829;28;20608;-80
2023/03/15 03:58:23;;;;;;;6.10;4.20;;;;;;;;;;5076011;28;20254;-80
2023/03/15 04:00:53;;;;;;;6.80;4.63;;;;;;;;;;5085443;28;20617;-80
2023/03/15 04:03:19;;;;;;;5.53;4.97;;;;;;;;;;5080729;28;20207;-80
2023/03/15 04:05:46;;;;;;;19.77;11.63;;;;;;;;;;5081703;28;20209;-80
2023/03/15 04:08:13;;;;;;;15.57;10.97;;;;;;;;;;5086996;28;20241;-80
2023/03/15 04:10:41;;;;;;;9.77;6.97;;;;;;;;;;5075751;28;20209;-80
2023/03/15 04:13:08;;;;;;;6.83;6.13;;;;;;;;;;5093538;28;20208;-80
2023/03/15 04:15:35;;;;;;;11.20;8.23;;;;;;;;;;5091437;28;20277;-80
2023/03/15 04:18:04;;;;;;;30.37;16.23;;;;;;;;;;5082451;28;20261;-86
2023/03/15 04:20:33;;;;;;;23.80;12.00;;;;;;;;;;5078008;28;20213;-79
2023/03/15 04:23:00;;;;;;;8.10;6.83;;;;;;;;;;5073772;28;20227;-80
2023/03/15 04:25:27;;;;;;;11.13;6.50;;;;;;;;;;5073343;28;20749;-81
2023/03/15 04:27:58;;;;;;;7.07;6.37;;;;;;;;;;5072371;28;20224;-83
2023/03/15 04:30:29;;;;;;;6.53;5.87;;;;;;;;;;5083058;28;20204;-81
2023/03/15 04:32:58;;;;;;;8.07;6.30;;;;;;;;;;5089329;28;20239;-81
2023/03/15 04:35:26;;;;;;;7.33;5.27;;;;;;;;;;5072921;28;20286;-82
2023/03/15 04:37:53;;;;;;;7.47;6.30;;;;;;;;;;5077720;28;20216;-82
2023/03/15 04:40:23;;;;;;;8.73;5.40;;;;;;;;;;5081301;28;20711;-82
2023/03/15 04:42:49;;;;;;;16.80;8.50;;;;;;;;;;5087125;28;20208;-82
2023/03/15 04:45:18;;;;;;;8.67;7.00;;;;;;;;;;5085126;28;20204;-82
2023/03/15 04:47:45;;;;;;;9.60;6.60;;;;;;;;;;5086044;28;20209;-82
2023/03/15 04:50:13;;;;;;;9.40;6.17;;;;;;;;;;5095787;28;20216;-82
2023/03/15 04:52:40;;;;;;;10.03;6.23;;;;;;;;;;5092753;28;20231;-83
2023/03/15 04:55:07;;;;;;;11.70;6.30;;;;;;;;;;5091979;28;20208;-83
2023/03/15 04:57:34;;;;;;;9.93;8.00;;;;;;;;;;5092992;28;20220;-83
2023/03/15 05:00:01;;;;;;;16.40;9.20;;;;;;;;;;5092729;28;20250;-83
2023/03/15 05:02:29;;;;;;;15.40;9.40;;;;;;;;;;5074827;28;20205;-83
2023/03/15 05:04:56;;;;;;;14.10;7.93;;;;;;;;;;5072323;28;20205;-81
2023/03/15 05:07:26;;;;;;;10.67;7.60;;;;;;;;;;5054766;28;20290;-80
2023/03/15 05:09:53;;;;;;;8.73;6.53;;;;;;;;;;5085846;28;20205;-83
2023/03/15 05:12:19;;;;;;;7.53;5.77;;;;;;;;;;5077227;28;20232;-83
2023/03/15 05:14:46;;;;;;;8.60;6.07;;;;;;;;;;5083887;28;20676;-82
2023/03/15 05:17:14;;;;;;;7.53;5.73;;;;;;;;;;5083554;28;20227;-83
2023/03/15 05:19:42;;;;;;;7.23;6.13;;;;;;;;;;5071839;28;20197;-83
2023/03/15 05:22:09;;;;;;;5.23;4.80;;;;;;;;;;5072002;28;20205;-83
2023/03/15 05:24:36;;;;;;;9.57;5.60;;;;;;;;;;5072321;28;20688;-83
2023/03/15 05:27:03;;;;;;;6.90;6.20;;;;;;;;;;5071976;28;20219;-83
2023/03/15 05:29:30;;;;;;;7.70;6.17;;;;;;;;;;5072001;28;20239;-83
2023/03/15 05:31:57;;;;;;;6.80;6.00;;;;;;;;;;5085533;28;20338;-83
2023/03/15 05:34:23;;;;;;;7.03;6.00;;;;;;;;;;5082342;28;20649;-83
2023/03/15 05:36:52;;;;;;;12.93;11.77;;;;;;;;;;5088660;28;20229;-84
2023/03/15 05:39:18;;;;;;;15.17;13.97;;;;;;;;;;5071870;28;20630;-84
2023/03/15 05:41:45;;;;;;;10.30;9.30;;;;;;;;;;5071964;28;20259;-84
2023/03/15 05:44:12;;;;;;;11.03;8.13;;;;;;;;;;5061630;28;20206;-84
2023/03/15 05:46:39;;;;;;;8.03;7.23;;;;;;;;;;5069411;28;20609;-84
2023/03/15 05:49:05;;;;;;;11.63;7.20;;;;;;;;;;5071709;28;20216;-87
2023/03/15 05:51:32;;;;;;;6.93;6.30;;;;;;;;;;5074693;28;20204;-84
2023/03/15 05:54:00;;;;;;;6.80;5.70;;;;;;;;;;5091657;28;20203;-84
2023/03/15 05:56:27;;;;;;;9.97;6.47;;;;;;;;;;5074042;28;20237;-84
2023/03/15 05:58:54;;;;;;;14.03;7.77;;;;;;;;;;5071405;28;20208;-85
2023/03/15 06:01:21;;;;;;;9.17;8.27;;;;;;;;;;5089617;28;20258;-85
2023/03/15 06:03:48;;;;;;;12.47;8.83;;;;;;;;;;5091997;28;20262;-85
2023/03/15 06:06:14;;;;;;;11.73;8.60;;;;;;;;;;5087018;28;20628;-85
2023/03/15 06:08:41;;;;;;;16.57;10.80;;;;;;;;;;5071427;28;20293;-86
2023/03/15 06:11:09;;;;;;;22.37;12.87;;;;;;;;;;5077084;28;20234;-86
2023/03/15 06:13:36;;;;;;;29.40;16.73;;;;;;;;;;5091133;28;20200;-86
2023/03/15 06:16:03;;;;;;;15.30;9.57;;;;;;;;;;5078156;28;20649;-85
2023/03/15 06:18:30;;;;;;;11.00;6.73;;;;;;;;;;5079033;28;20201;-85
2023/03/15 06:20:56;;;;;;;5.40;4.90;;;;;;;;;;5077343;28;20203;-86
2023/03/15 06:23:23;;;;;;;7.70;4.80;;;;;;;;;;5078559;28;20201;-86
2023/03/15 06:25:50;;;;;;;5.37;4.87;;;;;;;;;;5091412;28;20656;-86
2023/03/15 06:28:18;;;;;;;7.40;5.63;;;;;;;;;;5078317;28;20205;-86
2023/03/15 06:30:48;;;;;;;6.20;5.60;;;;;;;;;;5071612;28;20231;-85
2023/03/15 06:33:15;;;;;;;6.23;5.23;;;;;;;;;;5085073;28;20222;-86
2023/03/15 06:35:42;;;;;;;5.23;4.70;;;;;;;;;;5078912;28;20204;-85
2023/03/15 06:38:09;;;;;;;9.53;5.80;;;;;;;;;;5089954;28;20274;-86
2023/03/15 06:40:35;;;;;;;6.33;5.60;;;;;;;;;;5071531;28;20270;-86
2023/03/15 06:43:05;;;;;;;8.13;5.40;;;;;;;;;;5084674;28;20257;-85
2023/03/15 06:45:33;;;;;;;6.23;5.63;;;;;;;;;;5071664;28;20212;-86
2023/03/15 06:48:00;;;;;;;6.03;5.00;;;;;;;;;;5084412;28;20208;-85
2023/03/15 06:50:27;;;;;;;10.27;5.03;;;;;;;;;;5080306;28;20204;-86
2023/03/15 06:52:55;;;;;;;5.63;4.80;;;;;;;;;;5091577;28;20208;-85
2023/03/15 06:55:22;;;;;;;6.27;4.93;;;;;;;;;;5085411;28;20287;-86
2023/03/15 06:57:49;;;;;;;7.00;4.93;;;;;;;;;;5078624;28;20228;-85
2023/03/15 07:00:16;;;;;;;11.70;5.60;;;;;;;;;;5085124;28;20675;-85
2023/03/15 07:02:46;;;;;;;8.60;5.70;;;;;;;;;;5091467;28;20217;-85
2023/03/15 07:05:13;;;;;;;31.47;16.57;;;;;;;;;;5074719;28;20224;-86
2023/03/15 07:07:39;;;;;;;141.20;58.90;;;;;;;;;;5078938;28;20212;-86
2023/03/15 07:10:07;;;;;;;63.47;34.23;;;;;;;;;;5084225;28;20205;-86
2023/03/15 07:12:34;;;;;;;28.50;20.40;;;;;;;;;;5088695;28;20197;-85
2023/03/15 07:15:00;;;;;;;10.80;6.93;;;;;;;;;;5074420;28;20216;-85
2023/03/15 07:17:29;;;;;;;10.03;8.57;;;;;;;;;;5074606;28;20293;-85
2023/03/15 07:19:57;;;;;;;10.73;9.63;;;;;;;;;;5086221;28;20223;-85
2023/03/15 07:22:24;;;;;;;8.10;6.40;;;;;;;;;;5076057;28;20213;-85
2023/03/15 07:24:51;;;;;;;10.27;8.37;;;;;;;;;;5074822;28;20204;-85
2023/03/15 07:27:17;;;;;;;8.03;7.10;;;;;;;;;;5079753;28;20205;-85
2023/03/15 07:29:45;;;;;;;10.97;6.87;;;;;;;;;;5094410;28;20216;-85
2023/03/15 07:32:12;;;;;;;8.27;6.97;;;;;;;;;;5094337;28;20205;-85
2023/03/15 07:34:39;;;;;;;5.67;5.17;;;;;;;;;;5094797;28;20200;-85
2023/03/15 07:37:07;;;;;;;10.07;5.33;;;;;;;;;;5074561;28;20228;-85
2023/03/15 07:39:34;;;;;;;5.77;5.10;;;;;;;;;;5074223;28;20212;-84
2023/03/15 07:42:01;;;;;;;6.63;5.30;;;;;;;;;;5080455;28;20208;-85
2023/03/15 07:44:27;;;;;;;7.10;5.73;;;;;;;;;;5094635;28;20631;-85
2023/03/15 07:46:54;;;;;;;14.33;8.30;;;;;;;;;;5080847;28;20594;-85
2023/03/15 07:49:21;;;;;;;7.10;6.10;;;;;;;;;;5094574;28;20283;-86
2023/03/15 07:51:48;;;;;;;11.40;6.43;;;;;;;;;;5087282;28;20216;-85
2023/03/15 07:54:16;;;;;;;7.47;5.63;;;;;;;;;;5088005;28;20265;-86
2023/03/15 07:56:43;;;;;;;5.27;4.77;;;;;;;;;;5086946;28;20236;-86
2023/03/15 07:59:10;;;;;;;8.77;4.60;;;;;;;;;;5087457;28;20257;-86
2023/03/15 08:01:37;;;;;;;4.83;4.33;;;;;;;;;;5081779;28;20740;-84
2023/03/15 08:04:04;;;;;;;5.10;4.67;;;;;;;;;;5078639;28;20601;-86
2023/03/15 08:06:31;;;;;;;4.63;3.93;;;;;;;;;;5073655;28;20672;-86
2023/03/15 08:09:00;;;;;;;4.07;3.77;;;;;;;;;;5088685;28;20721;-86
2023/03/15 08:11:28;;;;;;;4.03;3.70;;;;;;;;;;5093512;28;20200;-86
2023/03/15 08:13:56;;;;;;;4.17;3.77;;;;;;;;;;5091756;28;20211;-86
2023/03/15 08:16:23;;;;;;;5.23;4.40;;;;;;;;;;5082779;28;20200;-86
2023/03/15 08:18:50;;;;;;;5.93;3.87;;;;;;;;;;5077938;28;20212;-86
2023/03/15 08:21:16;;;;;;;3.77;3.47;;;;;;;;;;5082545;28;20683;-86
2023/03/15 08:23:43;;;;;;;6.50;5.67;;;;;;;;;;5077807;28;20597;-86
2023/03/15 08:26:10;;;;;;;8.17;3.83;;;;;;;;;;5073666;28;20595;-87
2023/03/15 08:28:38;;;;;;;8.60;4.57;;;;;;;;;;5073384;28;20269;-86
2023/03/15 08:31:07;;;;;;;8.23;5.17;;;;;;;;;;5083156;28;20651;-86
2023/03/15 08:33:34;;;;;;;3.87;3.33;;;;;;;;;;5079928;28;20235;-86
2023/03/15 08:36:01;;;;;;;7.07;3.70;;;;;;;;;;5093114;28;20265;-86
2023/03/15 08:38:27;;;;;;;8.10;6.13;;;;;;;;;;5075882;28;20232;-85
2023/03/15 08:40:56;;;;;;;9.03;6.83;;;;;;;;;;5073085;28;20228;-87
2023/03/15 08:43:24;;;;;;;13.07;8.40;;;;;;;;;;5086201;28;20304;-86
2023/03/15 08:45:53;;;;;;;6.70;5.63;;;;;;;;;;5072994;28;20210;-86
2023/03/15 08:48:20;;;;;;;6.13;3.50;;;;;;;;;;5086985;28;20198;-86
2023/03/15 08:50:46;;;;;;;12.27;7.73;;;;;;;;;;5084900;28;20654;-86
2023/03/15 08:53:13;;;;;;;7.57;3.80;;;;;;;;;;5061223;28;20576;-86
2023/03/15 08:55:41;;;;;;;3.90;3.50;;;;;;;;;;5073344;28;20741;-86
2023/03/15 08:58:07;;;;;;;5.53;3.23;;;;;;;;;;5078430;28;20657;-87
2023/03/15 09:00:34;;;;;;;3.73;3.10;;;;;;;;;;5092790;28;20290;-86
2023/03/15 09:03:03;;;;;;;7.90;3.60;;;;;;;;;;5073522;28;20209;-87
2023/03/15 09:05:29;;;;;;;4.10;3.70;;;;;;;;;;5086177;28;20230;-87
2023/03/15 09:07:57;;;;;;;6.50;4.77;;;;;;;;;;5072702;28;20233;-87
2023/03/15 09:10:24;;;;;;;4.67;4.27;;;;;;;;;;5086045;28;20258;-86
2023/03/15 09:12:52;;;;;;;8.87;5.83;;;;;;;;;;5078925;28;20197;-87
2023/03/15 09:15:20;;;;;;;9.03;5.77;;;;;;;;;;5092119;28;20687;-87
2023/03/15 09:17:48;;;;;;;3.93;3.17;;;;;;;;;;5085750;28;20229;-87
2023/03/15 09:20:17;;;;;;;7.33;3.30;;;;;;;;;;5072557;28;20273;-87
2023/03/15 09:22:50;;;;;;;4.87;3.23;;;;;;;;;;5072895;28;20255;-87
2023/03/15 09:25:17;;;;;;;4.63;4.20;;;;;;;;;;5086403;28;20266;-87
2023/03/15 09:27:44;;;;;;;7.13;5.57;;;;;;;;;;5072372;28;20205;-87
2023/03/15 09:30:12;;;;;;;4.17;2.83;;;;;;;;;;5088313;28;20212;-87
2023/03/15 09:32:39;;;;;;;3.23;2.67;;;;;;;;;;5083142;28;20676;-87
2023/03/15 09:35:07;;;;;;;4.03;3.57;;;;;;;;;;5074883;28;20197;-87
2023/03/15 09:37:36;;;;;;;3.70;2.87;;;;;;;;;;5092283;28;21003;-87
2023/03/15 09:40:03;;;;;;;2.63;2.43;;;;;;;;;;5088417;28;20208;-87
2023/03/15 09:42:35;;;;;;;5.40;4.63;;;;;;;;;;5082672;28;20652;-87
2023/03/15 09:45:07;;;;;;;6.87;3.73;;;;;;;;;;5091826;28;20200;-87
2023/03/15 09:47:41;;;;;;;6.13;3.57;;;;;;;;;;5092116;28;20200;-87
2023/03/15 09:50:15;;;;;;;5.13;2.70;;;;;;;;;;5078764;28;20223;-88
2023/03/15 09:52:47;;;;;;;7.30;2.13;;;;;;;;;;5078950;28;20234;-87
2023/03/15 09:55:16;;;;;;;2.53;2.33;;;;;;;;;;5083484;28;20212;-87
2023/03/15 09:57:47;;;;;;;2.93;2.63;;;;;;;;;;5073863;28;20731;-87
2023/03/15 10:00:19;;;;;;;6.40;2.97;;;;;;;;;;5082684;28;20205;-87
2023/03/15 10:02:55;;;;;;;2.50;2.20;;;;;;;;;;5085147;28;20262;-88
2023/03/15 10:05:26;;;;;;;3.60;2.80;;;;;;;;;;5084091;28;20207;-87
2023/03/15 10:07:54;;;;;;;2.60;2.40;;;;;;;;;;5091018;28;20722;-87
2023/03/15 10:10:27;;;;;;;3.63;2.83;;;;;;;;;;5091897;28;20200;-87
2023/03/15 10:12:59;;;;;;;3.40;3.10;;;;;;;;;;5085217;28;20655;-87
2023/03/15 10:15:31;;;;;;;3.50;3.07;;;;;;;;;;5085330;28;20207;-87
2023/03/15 10:18:17;;;;;;;6.70;4.17;;;;;;;;;;5083438;28;20225;-87
2023/03/15 10:20:46;;;;;;;6.50;3.30;;;;;;;;;;5089471;28;20207;-87
2023/03/15 10:23:16;;;;;;;7.47;5.03;;;;;;;;;;5079892;28;20212;-86
2023/03/15 10:25:44;;;;;;;46.23;18.87;;;;;;;;;;5089976;28;20234;-88
2023/03/15 10:28:14;;;;;;;12.77;7.77;;;;;;;;;;5091378;28;20211;-86
2023/03/15 10:30:48;;;;;;;10.30;6.17;;;;;;;;;;5084624;28;20644;-86
2023/03/15 10:33:17;;;;;;;6.43;5.83;;;;;;;;;;5071055;28;20205;-88
2023/03/15 10:35:44;;;;;;;3.10;2.90;;;;;;;;;;5071507;28;20201;-87
2023/03/15 10:38:16;;;;;;;4.80;3.07;;;;;;;;;;5086080;28;20228;-87
2023/03/15 10:40:45;;;;;;;3.70;3.37;;;;;;;;;;5082712;28;20197;-87
2023/03/15 10:43:16;;;;;;;12.13;3.57;;;;;;;;;;5071147;28;20201;-87
2023/03/15 10:45:43;;;;;;;9.13;3.63;;;;;;;;;;5071348;28;20554;-87
2023/03/15 10:48:10;;;;;;;3.70;3.30;;;;;;;;;;5084359;28;20205;-87
2023/03/15 10:50:38;;;;;;;3.33;3.07;;;;;;;;;;5071449;28;20262;-87
2023/03/15 10:53:10;;;;;;;2.73;2.50;;;;;;;;;;5084518;28;20205;-87
2023/03/15 10:55:42;;;;;;;6.57;3.27;;;;;;;;;;5070883;28;20216;-86
2023/03/15 10:58:20;;;;;;;3.10;2.87;;;;;;;;;;5077070;28;20228;-87
2023/03/15 11:00:50;;;;;;;4.67;3.73;;;;;;;;;;5072566;28;20215;-87
2023/03/15 11:03:22;;;;;;;4.40;2.87;;;;;;;;;;5070858;28;20219;-88
2023/03/15 11:05:50;;;;;;;5.27;2.83;;;;;;;;;;5085024;28;20298;-91
2023/03/15 11:08:18;;;;;;;2.90;2.57;;;;;;;;;;5071127;28;20241;-87
2023/03/15 11:10:48;;;;;;;6.47;3.73;;;;;;;;;;5074369;28;20625;-87
2023/03/15 11:13:20;;;;;;;3.87;3.57;;;;;;;;;;5081266;28;20217;-87
2023/03/15 11:15:54;;;;;;;4.00;2.87;;;;;;;;;;5071153;28;20205;-86
2023/03/15 11:18:28;;;;;;;3.47;3.17;;;;;;;;;;5070718;28;20256;-87
2023/03/15 11:20:56;;;;;;;7.60;5.03;;;;;;;;;;5090647;28;20297;-87
2023/03/15 11:23:25;;;;;;;4.83;3.40;;;;;;;;;;5091284;28;20216;-87
2023/03/15 11:25:55;;;;;;;9.53;4.40;;;;;;;;;;5050845;28;20624;-86
2023/03/15 11:28:26;;;;;;;3.60;2.70;;;;;;;;;;5064457;28;20255;-87
2023/03/15 11:30:53;;;;;;;4.30;2.93;;;;;;;;;;5070930;28;20270;-87
2023/03/15 11:33:33;;;;;;;11.70;7.87;;;;;;;;;;5072028;28;20668;-87
2023/03/15 11:36:01;;;;;;;7.00;4.23;;;;;;;;;;5081263;28;20207;-86
2023/03/15 11:38:33;;;;;;;3.53;3.23;;;;;;;;;;5072603;28;20286;-86
2023/03/15 11:41:03;;;;;;;33.97;18.30;;;;;;;;;;5074221;28;20593;-87
2023/03/15 11:43:37;;;;;;;7.00;5.00;;;;;;;;;;5079498;28;20296;-86
2023/03/15 11:46:06;;;;;;;8.77;4.10;;;;;;;;;;5081941;28;20210;-86
2023/03/15 11:48:39;;;;;;;4.63;3.17;;;;;;;;;;5094323;28;20200;-86
2023/03/15 11:51:06;;;;;;;6.53;4.50;;;;;;;;;;5093995;28;20722;-87
2023/03/15 11:53:37;;;;;;;9.67;7.33;;;;;;;;;;5093982;28;20204;-86
2023/03/15 11:56:21;;;;;;;5.23;4.43;;;;;;;;;;5079548;28;20633;-87
2023/03/15 11:59:02;;;;;;;8.37;3.90;;;;;;;;;;5073771;28;20236;-86
2023/03/15 12:01:29;;;;;;;3.80;2.77;;;;;;;;;;5087314;28;20210;-87
2023/03/15 12:04:29;;;;;;;9.53;5.47;;;;;;;;;;5074105;28;20205;-87
2023/03/15 12:06:57;;;;;;;10.33;6.13;;;;;;;;;;5074331;28;20205;-87
2023/03/15 12:09:47;;;;;;;11.40;4.20;;;;;;;;;;5078098;28;20298;-86
2023/03/15 12:12:37;;;;;;;20.83;13.43;;;;;;;;;;5080211;28;20288;-87
2023/03/15 12:15:07;;;;;;;13.43;8.10;;;;;;;;;;5082779;28;20580;-86
2023/03/15 12:17:42;;;;;;;14.57;6.97;;;;;;;;;;5092154;28;20214;-86
2023/03/15 12:20:18;;;;;;;6.60;5.30;;;;;;;;;;5081037;28;20609;-87
2023/03/15 12:22:50;;;;;;;9.60;8.13;;;;;;;;;;5068814;28;20212;-86
2023/03/15 12:25:31;;;;;;;6.70;5.67;;;;;;;;;;5093424;28;20201;-86
2023/03/15 12:27:59;;;;;;;3.87;3.50;;;;;;;;;;5083239;28;20205;-85
2023/03/15 12:30:32;;;;;;;4.83;3.30;;;;;;;;;;5077424;28;20204;-86
2023/03/15 12:33:00;;;;;;;9.33;3.50;;;;;;;;;;5081920;28;20212;-86
2023/03/15 12:35:39;;;;;;;6.00;5.10;;;;;;;;;;5086551;28;20197;-86
2023/03/15 12:38:12;;;;;;;5.00;3.27;;;;;;;;;;5074135;28;20233;-86
2023/03/15 12:40:49;;;;;;;9.20;5.50;;;;;;;;;;5093183;28;20210;-86
2023/03/15 12:43:35;;;;;;;6.43;4.43;;;;;;;;;;5090127;28;20221;-86
2023/03/15 12:46:02;;;;;;;5.87;4.10;;;;;;;;;;5073240;28;20207;-86
2023/03/15 12:48:30;;;;;;;8.57;5.03;;;;;;;;;;5073072;28;20631;-86
2023/03/15 12:51:02;;;;;;;4.83;2.80;;;;;;;;;;5072443;28;20267;-87
2023/03/15 12:53:48;;;;;;;4.27;2.97;;;;;;;;;;5060896;28;20283;-87
2023/03/15 12:56:33;;;;;;;4.27;2.90;;;;;;;;;;5076566;28;20209;-86
2023/03/15 12:59:05;;;;;;;3.73;3.27;;;;;;;;;;5078768;28;20232;-86
2023/03/15 13:01:32;;;;;;;5.30;3.87;;;;;;;;;;5060073;28;20228;-87
2023/03/15 13:03:59;;;;;;;6.07;3.63;;;;;;;;;;5086658;28;20208;-86
2023/03/15 13:06:36;;;;;;;3.87;3.57;;;;;;;;;;5093199;28;20209;-87
2023/03/15 13:09:10;;;;;;;5.17;3.23;;;;;;;;;;5092149;28;20224;-86
2023/03/15 13:11:42;;;;;;;5.87;3.60;;;;;;;;;;5093001;28;20265;-87
2023/03/15 13:14:21;;;;;;;9.50;6.53;;;;;;;;;;5089395;28;20211;-86
2023/03/15 13:16:54;;;;;;;7.50;4.60;;;;;;;;;;5072390;28;20208;-86
2023/03/15 13:19:22;;;;;;;4.87;4.47;;;;;;;;;;5072783;28;20670;-86
2023/03/15 13:21:58;;;;;;;6.83;4.17;;;;;;;;;;5085621;28;20291;-86
2023/03/15 13:24:31;;;;;;;8.50;5.13;;;;;;;;;;5060399;28;20631;-87
2023/03/15 13:27:00;;;;;;;8.17;5.37;;;;;;;;;;5072112;28;20671;-87
2023/03/15 13:29:30;;;;;;;9.03;3.63;;;;;;;;;;5081610;28;20212;-87
2023/03/15 13:32:02;;;;;;;7.27;3.83;;;;;;;;;;5092307;28;20210;-86
2023/03/15 13:34:30;;;;;;;11.00;8.03;;;;;;;;;;5082069;28;20294;-86
2023/03/15 13:36:59;;;;;;;7.50;4.43;;;;;;;;;;5076388;28;20196;-87
2023/03/15 13:39:27;;;;;;;7.87;4.67;;;;;;;;;;5080921;28;20627;-87
2023/03/15 13:41:58;;;;;;;6.27;4.40;;;;;;;;;;5089744;28;20249;-87
2023/03/15 13:44:25;;;;;;;9.07;4.17;;;;;;;;;;5091652;28;20575;-90
2023/03/15 13:46:54;;;;;;;11.83;6.60;;;;;;;;;;5078059;28;20202;-86
2023/03/15 13:49:21;;;;;;;74.63;33.70;;;;;;;;;;5079346;28;20200;-86
2023/03/15 13:51:49;;;;;;;35.97;20.73;;;;;;;;;;5071902;28;20639;-87
2023/03/15 13:54:18;;;;;;;23.47;17.23;;;;;;;;;;5085176;28;20214;-87
2023/03/15 13:56:55;;;;;;;15.30;12.03;;;;;;;;;;5066258;28;20218;-86
2023/03/15 13:59:24;;;;;;;8.87;6.10;;;;;;;;;;5078126;28;20224;-87
2023/03/15 14:01:53;;;;;;;17.67;13.63;;;;;;;;;;5082554;28;20197;-86
2023/03/15 14:04:21;;;;;;;13.13;11.03;;;;;;;;;;5085089;28;20736;-87
2023/03/15 14:06:48;;;;;;;14.60;10.97;;;;;;;;;;5082054;28;20622;-87
2023/03/15 14:09:19;;;;;;;5.83;4.63;;;;;;;;;;5091688;28;20231;-86
2023/03/15 14:11:45;;;;;;;9.23;5.57;;;;;;;;;;5091352;28;20261;-86
2023/03/15 14:14:23;;;;;;;15.37;10.40;;;;;;;;;;5091473;28;20674;-86
2023/03/15 14:16:50;;;;;;;8.47;6.13;;;;;;;;;;5079622;28;20216;-86
2023/03/15 14:19:20;;;;;;;8.13;5.90;;;;;;;;;;5071282;28;20316;-86
2023/03/15 14:21:51;;;;;;;26.07;16.77;;;;;;;;;;5084469;28;20217;-86
2023/03/15 14:24:29;;;;;;;60.70;26.13;;;;;;;;;;5091281;28;20254;-86
2023/03/15 14:26:58;;;;;;;20.70;14.80;;;;;;;;;;5089915;28;20204;-86
2023/03/15 14:29:28;;;;;;;33.47;18.17;;;;;;;;;;5071640;28;20208;-86
2023/03/15 14:31:59;;;;;;;84.30;46.03;;;;;;;;;;5084445;28;20262;-87
2023/03/15 14:34:33;;;;;;;15.50;10.07;;;;;;;;;;5082262;28;20295;-86
2023/03/15 14:37:03;;;;;;;51.93;25.33;;;;;;;;;;5085826;28;20693;-87
2023/03/15 14:39:32;;;;;;;15.13;8.97;;;;;;;;;;5071361;28;20228;-87
2023/03/15 14:41:58;;;;;;;14.57;9.50;;;;;;;;;;5077268;28;20208;-88
2023/03/15 14:44:25;;;;;;;17.03;11.37;;;;;;;;;;5091535;28;20395;-87
2023/03/15 14:46:52;;;;;;;12.77;8.33;;;;;;;;;;5071510;28;20637;-86
2023/03/15 14:49:23;;;;;;;19.20;12.13;;;;;;;;;;5084461;28;20220;-87